sensor_id;sensor_type;location;lat;lon;timestamp;pressure;altitude;pressure_sealevel;temperature;humidity
78409;BME280;67697;50.750;-3.270;2023-07-16T00:01:13;99941.60;;;12.43;76.58
78409;BME280;67697;50.750;-3.270;2023-07-16T00:03:38;99945.69;;;12.71;75.07
78409;BME280;67697;50.750;-3.270;2023-07-16T00:06:04;99947.21;;;12.27;76.48
78409;BME280;67697;50.750;-3.270;2023-07-16T00:08:30;99949.87;;;12.38;74.94
78409;BME280;67697;50.750;-3.270;2023-07-16T00:10:55;99950.22;;;11.84;76.01
78409;BME280;67697;50.750;-3.270;2023-07-16T00:13:20;99952.17;;;11.79;77.31
78409;BME280;67697;50.750;-3.270;2023-07-16T00:15:46;99960.64;;;11.90;77.87
78409;BME280;67697;50.750;-3.270;2023-07-16T00:18:12;99958.10;;;11.92;77.85
78409;BME280;67697;50.750;-3.270;2023-07-16T00:20:37;99958.06;;;11.57;78.81
78409;BME280;67697;50.750;-3.270;2023-07-16T00:23:03;99958.83;;;11.44;78.98
78409;BME280;67697;50.750;-3.270;2023-07-16T00:25:28;99958.28;;;12.02;76.94
78409;BME280;67697;50.750;-3.270;2023-07-16T00:27:54;99967.53;;;12.19;77.06
78409;BME280;67697;50.750;-3.270;2023-07-16T00:30:19;99968.60;;;12.14;76.89
78409;BME280;67697;50.750;-3.270;2023-07-16T00:32:45;99976.12;;;11.75;77.04
78409;BME280;67697;50.750;-3.270;2023-07-16T00:35:11;99977.03;;;11.47;79.54
78409;BME280;67697;50.750;-3.270;2023-07-16T00:37:36;99980.45;;;11.34;78.65
78409;BME280;67697;50.750;-3.270;2023-07-16T00:40:02;99976.47;;;11.35;78.05
78409;BME280;67697;50.750;-3.270;2023-07-16T00:42:27;99980.32;;;11.36;78.07
78409;BME280;67697;50.750;-3.270;2023-07-16T00:44:53;99981.09;;;11.55;78.91
78409;BME280;67697;50.750;-3.270;2023-07-16T00:47:19;99984.46;;;11.49;78.51
78409;BME280;67697;50.750;-3.270;2023-07-16T00:49:44;99981.65;;;11.93;76.74
78409;BME280;67697;50.750;-3.270;2023-07-16T00:52:16;99980.33;;;11.18;78.26
78409;BME280;67697;50.750;-3.270;2023-07-16T00:54:35;99988.12;;;11.64;79.42
78409;BME280;67697;50.750;-3.270;2023-07-16T00:57:01;99989.56;;;11.38;78.36
78409;BME280;67697;50.750;-3.270;2023-07-16T00:59:27;99995.57;;;11.75;77.39
78409;BME280;67697;50.750;-3.270;2023-07-16T01:01:52;99995.59;;;11.22;79.24
78409;BME280;67697;50.750;-3.270;2023-07-16T01:04:18;99996.71;;;11.16;78.78
78409;BME280;67697;50.750;-3.270;2023-07-16T01:06:47;100000.77;;;10.92;80.13
78409;BME280;67697;50.750;-3.270;2023-07-16T01:09:15;100009.37;;;11.06;80.43
78409;BME280;67697;50.750;-3.270;2023-07-16T01:11:35;100010.76;;;10.94;80.43
78409;BME280;67697;50.750;-3.270;2023-07-16T01:14:01;100011.62;;;10.89;80.01
78409;BME280;67697;50.750;-3.270;2023-07-16T01:16:26;100011.81;;;10.97;79.86
78409;BME280;67697;50.750;-3.270;2023-07-16T01:18:51;100010.39;;;11.44;77.90
78409;BME280;67697;50.750;-3.270;2023-07-16T01:21:19;100009.10;;;11.21;78.96
78409;BME280;67697;50.750;-3.270;2023-07-16T01:26:18;100013.15;;;11.10;79.08
78409;BME280;67697;50.750;-3.270;2023-07-16T01:28:48;100014.27;;;10.95;79.60
78409;BME280;67697;50.750;-3.270;2023-07-16T01:30:59;100014.73;;;10.94;80.26
78409;BME280;67697;50.750;-3.270;2023-07-16T01:33:25;100015.79;;;11.23;79.31
78409;BME280;67697;50.750;-3.270;2023-07-16T01:35:51;100012.36;;;10.90;80.39
78409;BME280;67697;50.750;-3.270;2023-07-16T01:38:16;100014.27;;;11.14;79.11
78409;BME280;67697;50.750;-3.270;2023-07-16T01:40:47;100015.56;;;11.08;78.91
78409;BME280;67697;50.750;-3.270;2023-07-16T01:43:08;100011.16;;;11.00;78.94
78409;BME280;67697;50.750;-3.270;2023-07-16T01:45:33;100010.02;;;11.21;78.07
78409;BME280;67697;50.750;-3.270;2023-07-16T01:50:29;100008.41;;;11.62;77.13
78409;BME280;67697;50.750;-3.270;2023-07-16T01:52:50;100012.88;;;10.95;79.07
78409;BME280;67697;50.750;-3.270;2023-07-16T01:55:16;100017.44;;;10.76;80.64
78409;BME280;67697;50.750;-3.270;2023-07-16T01:57:41;100024.63;;;10.66;81.45
78409;BME280;67697;50.750;-3.270;2023-07-16T02:00:08;100028.13;;;10.78;81.20
78409;BME280;67697;50.750;-3.270;2023-07-16T02:02:32;100027.16;;;11.11;80.78
78409;BME280;67697;50.750;-3.270;2023-07-16T02:04:58;100029.92;;;10.90;79.49
78409;BME280;67697;50.750;-3.270;2023-07-16T02:07:24;100030.78;;;11.06;79.31
78409;BME280;67697;50.750;-3.270;2023-07-16T02:09:49;100028.66;;;10.94;79.89
78409;BME280;67697;50.750;-3.270;2023-07-16T02:12:15;100027.95;;;11.14;79.71
78409;BME280;67697;50.750;-3.270;2023-07-16T02:14:41;100029.47;;;11.20;79.43
78409;BME280;67697;50.750;-3.270;2023-07-16T02:17:06;100031.07;;;11.45;79.11
78409;BME280;67697;50.750;-3.270;2023-07-16T02:19:32;100037.18;;;11.57;77.29
78409;BME280;67697;50.750;-3.270;2023-07-16T02:21:58;100037.93;;;11.04;78.77
78409;BME280;67697;50.750;-3.270;2023-07-16T02:24:24;100038.39;;;11.14;78.40
78409;BME280;67697;50.750;-3.270;2023-07-16T02:26:49;100040.48;;;11.25;77.22
78409;BME280;67697;50.750;-3.270;2023-07-16T02:29:15;100041.40;;;11.94;75.91
78409;BME280;67697;50.750;-3.270;2023-07-16T02:31:50;100039.40;;;11.61;74.95
78409;BME280;67697;50.750;-3.270;2023-07-16T02:34:06;100037.63;;;11.14;77.95
78409;BME280;67697;50.750;-3.270;2023-07-16T02:36:32;100038.41;;;10.64;79.95
78409;BME280;67697;50.750;-3.270;2023-07-16T02:38:57;100037.86;;;11.19;78.76
78409;BME280;67697;50.750;-3.270;2023-07-16T02:41:23;100039.18;;;10.85;80.37
78409;BME280;67697;50.750;-3.270;2023-07-16T02:43:59;100042.79;;;10.94;79.46
78409;BME280;67697;50.750;-3.270;2023-07-16T02:46:14;100044.15;;;10.85;79.98
78409;BME280;67697;50.750;-3.270;2023-07-16T02:48:40;100042.24;;;10.86;79.94
78409;BME280;67697;50.750;-3.270;2023-07-16T02:51:05;100045.72;;;10.90;78.74
78409;BME280;67697;50.750;-3.270;2023-07-16T02:53:30;100045.60;;;11.57;76.25
78409;BME280;67697;50.750;-3.270;2023-07-16T02:55:56;100045.39;;;11.12;77.85
78409;BME280;67697;50.750;-3.270;2023-07-16T02:58:22;100048.75;;;11.36;77.18
78409;BME280;67697;50.750;-3.270;2023-07-16T03:00:47;100050.22;;;11.32;77.88
78409;BME280;67697;50.750;-3.270;2023-07-16T03:03:13;100057.69;;;11.62;77.29
78409;BME280;67697;50.750;-3.270;2023-07-16T03:05:38;100051.60;;;11.48;78.11
78409;BME280;67697;50.750;-3.270;2023-07-16T03:08:04;100056.96;;;11.42;76.67
78409;BME280;67697;50.750;-3.270;2023-07-16T03:10:29;100056.99;;;11.61;75.63
78409;BME280;67697;50.750;-3.270;2023-07-16T03:12:55;100055.85;;;11.25;77.66
78409;BME280;67697;50.750;-3.270;2023-07-16T03:15:21;100057.45;;;12.05;74.46
78409;BME280;67697;50.750;-3.270;2023-07-16T03:17:46;100061.41;;;12.25;73.74
78409;BME280;67697;50.750;-3.270;2023-07-16T03:20:12;100065.99;;;11.72;74.36
78409;BME280;67697;50.750;-3.270;2023-07-16T03:22:38;100065.62;;;11.71;74.68
78409;BME280;67697;50.750;-3.270;2023-07-16T03:25:04;100065.60;;;11.50;75.14
78409;BME280;67697;50.750;-3.270;2023-07-16T03:27:29;100069.12;;;11.49;76.96
78409;BME280;67697;50.750;-3.270;2023-07-16T03:29:54;100075.27;;;11.18;75.28
78409;BME280;67697;50.750;-3.270;2023-07-16T03:32:25;100078.39;;;11.41;75.77
78409;BME280;67697;50.750;-3.270;2023-07-16T03:34:45;100083.62;;;11.16;76.15
78409;BME280;67697;50.750;-3.270;2023-07-16T03:37:11;100087.57;;;10.98;76.75
78409;BME280;67697;50.750;-3.270;2023-07-16T03:39:37;100091.44;;;11.71;75.68
78409;BME280;67697;50.750;-3.270;2023-07-16T03:42:03;100090.95;;;12.50;71.46
78409;BME280;67697;50.750;-3.270;2023-07-16T03:44:29;100094.18;;;12.01;73.18
78409;BME280;67697;50.750;-3.270;2023-07-16T03:46:54;100099.59;;;11.52;74.37
78409;BME280;67697;50.750;-3.270;2023-07-16T03:49:19;100102.38;;;11.60;75.07
78409;BME280;67697;50.750;-3.270;2023-07-16T03:51:45;100109.22;;;11.42;74.92
78409;BME280;67697;50.750;-3.270;2023-07-16T03:54:10;100108.35;;;11.17;76.31
78409;BME280;67697;50.750;-3.270;2023-07-16T03:56:36;100118.93;;;10.93;76.83
78409;BME280;67697;50.750;-3.270;2023-07-16T03:59:01;100114.65;;;11.98;75.33
78409;BME280;67697;50.750;-3.270;2023-07-16T04:01:27;100114.62;;;11.23;75.78
78409;BME280;67697;50.750;-3.270;2023-07-16T04:03:52;100112.74;;;11.21;74.90
78409;BME280;67697;50.750;-3.270;2023-07-16T04:06:19;100114.97;;;12.08;73.18
78409;BME280;67697;50.750;-3.270;2023-07-16T04:08:43;100117.02;;;12.37;69.67
78409;BME280;67697;50.750;-3.270;2023-07-16T04:11:09;100117.14;;;12.99;69.25
78409;BME280;67697;50.750;-3.270;2023-07-16T04:13:35;100123.43;;;12.27;70.15
78409;BME280;67697;50.750;-3.270;2023-07-16T04:16:00;100128.76;;;12.55;70.19
78409;BME280;67697;50.750;-3.270;2023-07-16T04:18:26;100131.19;;;12.52;69.15
78409;BME280;67697;50.750;-3.270;2023-07-16T04:20:51;100132.27;;;12.30;69.36
78409;BME280;67697;50.750;-3.270;2023-07-16T04:23:17;100135.04;;;12.12;70.16
78409;BME280;67697;50.750;-3.270;2023-07-16T04:25:51;100141.05;;;12.38;69.62
78409;BME280;67697;50.750;-3.270;2023-07-16T04:28:09;100144.09;;;12.88;69.49
78409;BME280;67697;50.750;-3.270;2023-07-16T04:30:34;100148.66;;;12.17;69.70
78409;BME280;67697;50.750;-3.270;2023-07-16T04:32:59;100154.23;;;11.13;73.80
78409;BME280;67697;50.750;-3.270;2023-07-16T04:35:25;100156.81;;;11.52;72.58
78409;BME280;67697;50.750;-3.270;2023-07-16T04:37:50;100159.67;;;12.11;71.43
78409;BME280;67697;50.750;-3.270;2023-07-16T04:40:16;100156.42;;;12.16;71.21
78409;BME280;67697;50.750;-3.270;2023-07-16T04:42:41;100163.93;;;11.71;71.87
78409;BME280;67697;50.750;-3.270;2023-07-16T04:45:08;100164.17;;;12.41;70.99
78409;BME280;67697;50.750;-3.270;2023-07-16T04:47:33;100166.96;;;12.32;70.27
78409;BME280;67697;50.750;-3.270;2023-07-16T04:49:58;100167.26;;;12.28;71.25
78409;BME280;67697;50.750;-3.270;2023-07-16T04:52:24;100170.30;;;11.94;71.62
78409;BME280;67697;50.750;-3.270;2023-07-16T04:54:50;100171.67;;;11.65;72.31
78409;BME280;67697;50.750;-3.270;2023-07-16T04:57:15;100170.98;;;11.38;73.35
78409;BME280;67697;50.750;-3.270;2023-07-16T04:59:46;100165.92;;;11.47;72.68
78409;BME280;67697;50.750;-3.270;2023-07-16T05:02:07;100167.23;;;12.26;71.20
78409;BME280;67697;50.750;-3.270;2023-07-16T05:04:32;100165.15;;;12.05;71.17
78409;BME280;67697;50.750;-3.270;2023-07-16T05:06:57;100171.43;;;12.10;72.30
78409;BME280;67697;50.750;-3.270;2023-07-16T05:09:23;100174.31;;;12.16;71.28
78409;BME280;67697;50.750;-3.270;2023-07-16T05:11:54;100177.93;;;11.80;72.80
78409;BME280;67697;50.750;-3.270;2023-07-16T05:14:14;100182.90;;;11.97;72.76
78409;BME280;67697;50.750;-3.270;2023-07-16T05:16:40;100188.23;;;11.99;72.76
78409;BME280;67697;50.750;-3.270;2023-07-16T05:19:06;100188.17;;;12.85;70.62
78409;BME280;67697;50.750;-3.270;2023-07-16T05:21:31;100193.60;;;11.62;73.84
78409;BME280;67697;50.750;-3.270;2023-07-16T05:24:02;100199.50;;;12.09;73.25
78409;BME280;67697;50.750;-3.270;2023-07-16T05:26:22;100206.00;;;12.22;72.81
78409;BME280;67697;50.750;-3.270;2023-07-16T05:28:48;100212.74;;;11.47;74.70
78409;BME280;67697;50.750;-3.270;2023-07-16T05:31:14;100210.47;;;11.81;74.22
78409;BME280;67697;50.750;-3.270;2023-07-16T05:33:39;100219.55;;;11.57;75.41
78409;BME280;67697;50.750;-3.270;2023-07-16T05:36:05;100219.57;;;11.74;75.44
78409;BME280;67697;50.750;-3.270;2023-07-16T05:38:30;100218.88;;;12.61;73.58
78409;BME280;67697;50.750;-3.270;2023-07-16T05:41:01;100221.93;;;12.62;73.45
78409;BME280;67697;50.750;-3.270;2023-07-16T05:43:22;100228.34;;;12.63;73.62
78409;BME280;67697;50.750;-3.270;2023-07-16T05:45:48;100229.31;;;12.50;73.20
78409;BME280;67697;50.750;-3.270;2023-07-16T05:48:13;100232.41;;;12.27;75.75
78409;BME280;67697;50.750;-3.270;2023-07-16T05:50:40;100232.74;;;11.91;76.24
78409;BME280;67697;50.750;-3.270;2023-07-16T05:53:03;100235.67;;;12.87;73.25
78409;BME280;67697;50.750;-3.270;2023-07-16T05:55:29;100235.74;;;13.35;73.75
78409;BME280;67697;50.750;-3.270;2023-07-16T05:57:54;100235.07;;;13.59;72.62
78409;BME280;67697;50.750;-3.270;2023-07-16T06:00:20;100233.61;;;13.83;73.13
78409;BME280;67697;50.750;-3.270;2023-07-16T06:02:46;100240.59;;;13.58;72.74
78409;BME280;67697;50.750;-3.270;2023-07-16T06:05:11;100241.38;;;13.32;72.32
78409;BME280;67697;50.750;-3.270;2023-07-16T06:07:36;100248.51;;;12.84;74.07
78409;BME280;67697;50.750;-3.270;2023-07-16T06:10:02;100255.12;;;12.66;75.08
78409;BME280;67697;50.750;-3.270;2023-07-16T06:12:28;100258.46;;;13.42;72.97
78409;BME280;67697;50.750;-3.270;2023-07-16T06:14:53;100261.19;;;13.82;71.88
78409;BME280;67697;50.750;-3.270;2023-07-16T06:17:19;100262.38;;;13.17;72.49
78409;BME280;67697;50.750;-3.270;2023-07-16T06:19:44;100262.89;;;13.33;72.42
78409;BME280;67697;50.750;-3.270;2023-07-16T06:22:10;100267.27;;;13.05;72.42
78409;BME280;67697;50.750;-3.270;2023-07-16T06:24:40;100272.86;;;13.00;72.38
78409;BME280;67697;50.750;-3.270;2023-07-16T06:27:01;100276.90;;;13.40;70.63
78409;BME280;67697;50.750;-3.270;2023-07-16T06:29:27;100285.47;;;13.94;71.75
78409;BME280;67697;50.750;-3.270;2023-07-16T06:31:56;100284.46;;;13.75;72.22
78409;BME280;67697;50.750;-3.270;2023-07-16T06:34:18;100284.35;;;14.03;70.01
78409;BME280;67697;50.750;-3.270;2023-07-16T06:36:43;100284.69;;;14.10;67.46
78409;BME280;67697;50.750;-3.270;2023-07-16T06:39:09;100287.97;;;14.50;67.97
78409;BME280;67697;50.750;-3.270;2023-07-16T06:41:34;100292.31;;;13.72;69.82
78409;BME280;67697;50.750;-3.270;2023-07-16T06:43:59;100295.04;;;13.01;72.93
78409;BME280;67697;50.750;-3.270;2023-07-16T06:46:25;100297.99;;;13.59;71.54
78409;BME280;67697;50.750;-3.270;2023-07-16T06:48:50;100303.50;;;13.81;71.65
78409;BME280;67697;50.750;-3.270;2023-07-16T06:51:16;100303.75;;;14.08;70.23
78409;BME280;67697;50.750;-3.270;2023-07-16T06:53:43;100303.64;;;13.98;71.37
78409;BME280;67697;50.750;-3.270;2023-07-16T06:56:07;100307.19;;;13.56;72.81
78409;BME280;67697;50.750;-3.270;2023-07-16T06:58:33;100307.68;;;14.04;70.88
78409;BME280;67697;50.750;-3.270;2023-07-16T07:00:58;100309.72;;;13.50;72.07
78409;BME280;67697;50.750;-3.270;2023-07-16T07:03:24;100316.38;;;13.58;73.52
78409;BME280;67697;50.750;-3.270;2023-07-16T07:05:49;100318.74;;;13.14;71.74
78409;BME280;67697;50.750;-3.270;2023-07-16T07:08:15;100319.50;;;13.39;72.12
78409;BME280;67697;50.750;-3.270;2023-07-16T07:10:41;100324.97;;;12.62;73.74
78409;BME280;67697;50.750;-3.270;2023-07-16T07:13:06;100329.33;;;13.49;73.17
78409;BME280;67697;50.750;-3.270;2023-07-16T07:15:31;100326.36;;;13.03;72.10
78409;BME280;67697;50.750;-3.270;2023-07-16T07:17:57;100335.20;;;13.24;74.14
78409;BME280;67697;50.750;-3.270;2023-07-16T07:20:22;100336.39;;;13.26;74.18
78409;BME280;67697;50.750;-3.270;2023-07-16T07:22:53;100332.16;;;13.25;72.12
78409;BME280;67697;50.750;-3.270;2023-07-16T07:25:14;100335.69;;;14.39;69.94
78409;BME280;67697;50.750;-3.270;2023-07-16T07:27:40;100334.75;;;13.74;70.73
78409;BME280;67697;50.750;-3.270;2023-07-16T07:30:06;100334.38;;;13.87;71.57
78409;BME280;67697;50.750;-3.270;2023-07-16T07:32:30;100337.37;;;14.08;67.86
78409;BME280;67697;50.750;-3.270;2023-07-16T07:34:56;100335.27;;;14.26;67.78
78409;BME280;67697;50.750;-3.270;2023-07-16T07:37:21;100338.49;;;14.21;68.14
78409;BME280;67697;50.750;-3.270;2023-07-16T07:39:52;100346.23;;;14.32;67.84
78409;BME280;67697;50.750;-3.270;2023-07-16T07:42:13;100347.41;;;14.35;67.42
78409;BME280;67697;50.750;-3.270;2023-07-16T07:44:38;100346.31;;;14.36;67.89
78409;BME280;67697;50.750;-3.270;2023-07-16T07:47:04;100349.74;;;14.66;67.82
78409;BME280;67697;50.750;-3.270;2023-07-16T07:49:29;100343.69;;;14.67;67.26
78409;BME280;67697;50.750;-3.270;2023-07-16T07:51:55;100345.40;;;14.58;66.96
78409;BME280;67697;50.750;-3.270;2023-07-16T07:54:20;100344.80;;;14.16;69.13
78409;BME280;67697;50.750;-3.270;2023-07-16T07:56:46;100348.41;;;14.66;68.08
78409;BME280;67697;50.750;-3.270;2023-07-16T07:59:11;100357.96;;;14.65;68.39
78409;BME280;67697;50.750;-3.270;2023-07-16T08:01:37;100357.04;;;14.70;68.35
78409;BME280;67697;50.750;-3.270;2023-07-16T08:04:03;100361.85;;;14.97;68.02
78409;BME280;67697;50.750;-3.270;2023-07-16T08:06:28;100361.42;;;15.22;67.25
78409;BME280;67697;50.750;-3.270;2023-07-16T08:08:54;100363.55;;;15.03;67.84
78409;BME280;67697;50.750;-3.270;2023-07-16T08:11:20;100366.27;;;15.20;67.04
78409;BME280;67697;50.750;-3.270;2023-07-16T08:13:45;100367.90;;;15.27;66.15
78409;BME280;67697;50.750;-3.270;2023-07-16T08:16:10;100368.50;;;15.41;67.60
78409;BME280;67697;50.750;-3.270;2023-07-16T08:18:35;100366.58;;;15.51;67.73
78409;BME280;67697;50.750;-3.270;2023-07-16T08:21:01;100366.16;;;15.25;64.11
78409;BME280;67697;50.750;-3.270;2023-07-16T08:23:26;100369.45;;;15.25;67.27
78409;BME280;67697;50.750;-3.270;2023-07-16T08:25:52;100373.26;;;15.15;67.09
78409;BME280;67697;50.750;-3.270;2023-07-16T08:28:18;100378.94;;;14.73;66.22
78409;BME280;67697;50.750;-3.270;2023-07-16T08:30:46;100382.02;;;14.92;67.49
78409;BME280;67697;50.750;-3.270;2023-07-16T08:33:09;100379.58;;;15.27;63.52
78409;BME280;67697;50.750;-3.270;2023-07-16T08:35:34;100379.81;;;16.45;63.13
78409;BME280;67697;50.750;-3.270;2023-07-16T08:38:00;100383.50;;;16.67;62.63
78409;BME280;67697;50.750;-3.270;2023-07-16T08:40:26;100377.98;;;16.10;59.58
78409;BME280;67697;50.750;-3.270;2023-07-16T08:42:51;100382.08;;;15.86;61.79
78409;BME280;67697;50.750;-3.270;2023-07-16T08:45:16;100386.54;;;16.12;59.41
78409;BME280;67697;50.750;-3.270;2023-07-16T08:47:41;100381.33;;;15.92;58.27
78409;BME280;67697;50.750;-3.270;2023-07-16T08:50:08;100383.62;;;15.93;58.83
78409;BME280;67697;50.750;-3.270;2023-07-16T08:52:33;100390.42;;;16.08;62.25
78409;BME280;67697;50.750;-3.270;2023-07-16T08:54:58;100390.06;;;16.10;60.87
78409;BME280;67697;50.750;-3.270;2023-07-16T08:57:23;100387.84;;;16.06;61.37
78409;BME280;67697;50.750;-3.270;2023-07-16T08:59:50;100395.31;;;15.29;63.35
78409;BME280;67697;50.750;-3.270;2023-07-16T09:02:15;100395.12;;;15.66;63.00
78409;BME280;67697;50.750;-3.270;2023-07-16T09:04:40;100397.72;;;16.01;59.61
78409;BME280;67697;50.750;-3.270;2023-07-16T09:07:05;100395.35;;;16.37;60.95
78409;BME280;67697;50.750;-3.270;2023-07-16T09:09:31;100394.23;;;15.95;60.17
78409;BME280;67697;50.750;-3.270;2023-07-16T09:11:56;100396.50;;;15.48;62.76
78409;BME280;67697;50.750;-3.270;2023-07-16T09:14:22;100394.72;;;15.67;61.48
78409;BME280;67697;50.750;-3.270;2023-07-16T09:16:48;100394.37;;;15.90;59.68
78409;BME280;67697;50.750;-3.270;2023-07-16T09:19:13;100400.10;;;16.27;58.64
78409;BME280;67697;50.750;-3.270;2023-07-16T09:21:38;100401.29;;;16.58;55.71
78409;BME280;67697;50.750;-3.270;2023-07-16T09:24:07;100406.23;;;15.85;59.33
78409;BME280;67697;50.750;-3.270;2023-07-16T09:26:29;100409.44;;;15.87;60.43
78409;BME280;67697;50.750;-3.270;2023-07-16T09:28:55;100413.32;;;15.76;60.00
78409;BME280;67697;50.750;-3.270;2023-07-16T09:31:20;100415.56;;;15.81;60.54
78409;BME280;67697;50.750;-3.270;2023-07-16T09:33:47;100415.31;;;16.00;60.68
78409;BME280;67697;50.750;-3.270;2023-07-16T09:36:11;100417.04;;;16.22;59.30
78409;BME280;67697;50.750;-3.270;2023-07-16T09:38:37;100419.79;;;15.78;58.03
78409;BME280;67697;50.750;-3.270;2023-07-16T09:41:03;100420.69;;;16.23;57.00
78409;BME280;67697;50.750;-3.270;2023-07-16T09:43:27;100419.51;;;16.28;60.50
78409;BME280;67697;50.750;-3.270;2023-07-16T09:45:53;100423.79;;;16.51;59.06
78409;BME280;67697;50.750;-3.270;2023-07-16T09:48:18;100424.63;;;16.48;58.19
78409;BME280;67697;50.750;-3.270;2023-07-16T09:50:49;100431.26;;;16.43;58.70
78409;BME280;67697;50.750;-3.270;2023-07-16T09:53:10;100435.66;;;17.03;54.79
78409;BME280;67697;50.750;-3.270;2023-07-16T09:55:35;100428.95;;;17.20;50.78
78409;BME280;67697;50.750;-3.270;2023-07-16T09:58:02;100428.54;;;17.33;49.83
78409;BME280;67697;50.750;-3.270;2023-07-16T10:00:27;100432.67;;;17.30;49.31
78409;BME280;67697;50.750;-3.270;2023-07-16T10:02:52;100435.49;;;16.70;49.41
78409;BME280;67697;50.750;-3.270;2023-07-16T10:05:18;100446.35;;;16.78;49.49
78409;BME280;67697;50.750;-3.270;2023-07-16T10:07:48;100464.17;;;16.42;52.83
78409;BME280;67697;50.750;-3.270;2023-07-16T10:10:09;100485.02;;;14.99;57.09
78409;BME280;67697;50.750;-3.270;2023-07-16T10:12:34;100488.02;;;14.63;62.49
78409;BME280;67697;50.750;-3.270;2023-07-16T10:14:59;100477.89;;;14.65;62.18
78409;BME280;67697;50.750;-3.270;2023-07-16T10:17:26;100473.90;;;14.91;61.17
78409;BME280;67697;50.750;-3.270;2023-07-16T10:19:52;100466.24;;;15.50;60.92
78409;BME280;67697;50.750;-3.270;2023-07-16T10:22:17;100455.98;;;15.54;59.04
78409;BME280;67697;50.750;-3.270;2023-07-16T10:24:41;100457.22;;;16.22;60.59
78409;BME280;67697;50.750;-3.270;2023-07-16T10:27:13;100459.38;;;17.47;59.70
78409;BME280;67697;50.750;-3.270;2023-07-16T10:29:32;100459.55;;;17.73;59.44
78409;BME280;67697;50.750;-3.270;2023-07-16T10:31:58;100457.73;;;19.07;55.89
78409;BME280;67697;50.750;-3.270;2023-07-16T10:34:23;100459.26;;;19.26;56.62
78409;BME280;67697;50.750;-3.270;2023-07-16T10:36:50;100463.27;;;18.05;60.92
78409;BME280;67697;50.750;-3.270;2023-07-16T10:39:16;100458.23;;;18.44;58.40
78409;BME280;67697;50.750;-3.270;2023-07-16T10:41:40;100456.14;;;17.83;59.07
78409;BME280;67697;50.750;-3.270;2023-07-16T10:44:08;100456.90;;;18.08;58.61
78409;BME280;67697;50.750;-3.270;2023-07-16T10:46:31;100456.05;;;18.04;56.14
78409;BME280;67697;50.750;-3.270;2023-07-16T10:48:56;100453.79;;;18.57;57.24
78409;BME280;67697;50.750;-3.270;2023-07-16T10:51:26;100451.02;;;18.81;55.97
78409;BME280;67697;50.750;-3.270;2023-07-16T10:53:47;100455.43;;;18.17;57.41
78409;BME280;67697;50.750;-3.270;2023-07-16T10:56:12;100453.04;;;19.25;52.89
78409;BME280;67697;50.750;-3.270;2023-07-16T10:58:38;100449.24;;;19.99;51.06
78409;BME280;67697;50.750;-3.270;2023-07-16T11:01:04;100455.71;;;18.97;53.72
78409;BME280;67697;50.750;-3.270;2023-07-16T11:03:34;100452.22;;;20.06;51.73
78409;BME280;67697;50.750;-3.270;2023-07-16T11:05:55;100453.35;;;19.50;52.35
78409;BME280;67697;50.750;-3.270;2023-07-16T11:08:25;100458.97;;;19.25;53.43
78409;BME280;67697;50.750;-3.270;2023-07-16T11:10:54;100465.72;;;18.26;57.36
78409;BME280;67697;50.750;-3.270;2023-07-16T11:13:11;100470.66;;;16.66;59.21
78409;BME280;67697;50.750;-3.270;2023-07-16T11:15:37;100473.44;;;16.08;62.13
78409;BME280;67697;50.750;-3.270;2023-07-16T11:18:08;100474.27;;;15.40;60.69
78409;BME280;67697;50.750;-3.270;2023-07-16T11:20:29;100481.63;;;15.03;63.37
78409;BME280;67697;50.750;-3.270;2023-07-16T11:22:59;100490.99;;;15.06;65.34
78409;BME280;67697;50.750;-3.270;2023-07-16T11:25:19;100495.26;;;15.01;64.44
78409;BME280;67697;50.750;-3.270;2023-07-16T11:27:44;100502.44;;;15.21;62.93
78409;BME280;67697;50.750;-3.270;2023-07-16T11:30:11;100515.33;;;15.10;64.33
78409;BME280;67697;50.750;-3.270;2023-07-16T11:32:37;100514.09;;;14.87;66.97
78409;BME280;67697;50.750;-3.270;2023-07-16T11:35:03;100527.44;;;14.74;64.04
78409;BME280;67697;50.750;-3.270;2023-07-16T11:37:28;100519.28;;;14.21;67.53
78409;BME280;67697;50.750;-3.270;2023-07-16T11:39:55;100523.09;;;14.08;68.01
78409;BME280;67697;50.750;-3.270;2023-07-16T11:42:27;100523.65;;;14.23;67.94
78409;BME280;67697;50.750;-3.270;2023-07-16T11:44:48;100524.27;;;14.35;69.73
78409;BME280;67697;50.750;-3.270;2023-07-16T11:47:08;100519.59;;;14.81;67.41
78409;BME280;67697;50.750;-3.270;2023-07-16T11:49:34;100522.38;;;14.56;66.20
78409;BME280;67697;50.750;-3.270;2023-07-16T11:52:00;100525.11;;;15.03;63.98
78409;BME280;67697;50.750;-3.270;2023-07-16T11:54:26;100521.24;;;16.20;62.42
78409;BME280;67697;50.750;-3.270;2023-07-16T11:56:51;100523.75;;;16.34;61.85
78409;BME280;67697;50.750;-3.270;2023-07-16T11:59:26;100525.92;;;15.94;63.79
78409;BME280;67697;50.750;-3.270;2023-07-16T12:01:42;100522.25;;;16.51;61.16
78409;BME280;67697;50.750;-3.270;2023-07-16T12:04:07;100522.26;;;17.22;57.03
78409;BME280;67697;50.750;-3.270;2023-07-16T12:06:33;100526.70;;;17.36;60.50
78409;BME280;67697;50.750;-3.270;2023-07-16T12:08:59;100521.51;;;17.05;58.96
78409;BME280;67697;50.750;-3.270;2023-07-16T12:11:24;100524.22;;;16.75;58.89
78409;BME280;67697;50.750;-3.270;2023-07-16T12:13:50;100522.77;;;16.57;61.64
78409;BME280;67697;50.750;-3.270;2023-07-16T12:16:15;100523.51;;;15.53;65.88
78409;BME280;67697;50.750;-3.270;2023-07-16T12:18:41;100531.65;;;15.78;65.86
78409;BME280;67697;50.750;-3.270;2023-07-16T12:21:06;100535.40;;;15.83;65.71
78409;BME280;67697;50.750;-3.270;2023-07-16T12:23:37;100533.45;;;16.04;63.14
78409;BME280;67697;50.750;-3.270;2023-07-16T12:26:03;100529.34;;;16.42;65.35
78409;BME280;67697;50.750;-3.270;2023-07-16T12:28:28;100529.84;;;16.06;64.54
78409;BME280;67697;50.750;-3.270;2023-07-16T12:30:48;100527.79;;;16.50;61.69
78409;BME280;67697;50.750;-3.270;2023-07-16T12:33:13;100526.50;;;16.00;63.48
78409;BME280;67697;50.750;-3.270;2023-07-16T12:35:39;100525.17;;;16.37;63.89